sensor_id;sensor_type;location;lat;lon;timestamp;pressure;altitude;pressure_sealevel;temperature;humidity
43621;BME280;29213;50.770;7.298;2023-07-28T00:00:47;99885.44;;;15.55;73.83
43621;BME280;29213;50.770;7.298;2023-07-28T00:03:13;99918.78;;;15.72;74.00
43621;BME280;29213;50.770;7.298;2023-07-28T00:05:38;99923.72;;;15.75;73.80
43621;BME280;29213;50.770;7.298;2023-07-28T00:08:04;99938.53;;;15.85;73.83
43621;BME280;29213;50.770;7.298;2023-07-28T00:10:29;99868.38;;;15.35;73.83
43621;BME280;29213;50.770;7.298;2023-07-28T00:12:55;99915.72;;;15.69;73.96
43621;BME280;29213;50.770;7.298;2023-07-28T00:15:21;99887.72;;;15.51;74.15
43621;BME280;29213;50.770;7.298;2023-07-28T00:17:46;99934.44;;;15.82;73.87
43621;BME280;29213;50.770;7.298;2023-07-28T00:20:11;99929.91;;;15.76;73.73
43621;BME280;29213;50.770;7.298;2023-07-28T00:22:37;99946.00;;;15.83;73.92
43621;BME280;29213;50.770;7.298;2023-07-28T00:25:02;99932.56;;;15.83;74.11
43621;BME280;29213;50.770;7.298;2023-07-28T00:27:28;99887.13;;;15.49;74.13
43621;BME280;29213;50.770;7.298;2023-07-28T00:29:53;99922.91;;;15.75;73.99
43621;BME280;29213;50.770;7.298;2023-07-28T00:32:18;99932.56;;;15.83;74.21
43621;BME280;29213;50.770;7.298;2023-07-28T00:34:44;99928.25;;;15.82;73.95
43621;BME280;29213;50.770;7.298;2023-07-28T00:37:09;99929.88;;;15.83;73.83
43621;BME280;29213;50.770;7.298;2023-07-28T00:39:35;99909.91;;;15.72;73.93
43621;BME280;29213;50.770;7.298;2023-07-28T00:42:01;99897.22;;;15.54;74.12
43621;BME280;29213;50.770;7.298;2023-07-28T00:44:26;99906.03;;;15.61;74.19
43621;BME280;29213;50.770;7.298;2023-07-28T00:46:52;99941.66;;;15.82;74.17
43621;BME280;29213;50.770;7.298;2023-07-28T00:49:17;99936.09;;;15.83;74.14
43621;BME280;29213;50.770;7.298;2023-07-28T00:51:43;99928.91;;;15.77;74.07
43621;BME280;29213;50.770;7.298;2023-07-28T00:54:09;99896.38;;;15.53;74.23
43621;BME280;29213;50.770;7.298;2023-07-28T00:56:34;99925.59;;;15.75;74.09
43621;BME280;29213;50.770;7.298;2023-07-28T00:59:00;99931.75;;;15.82;74.30
43621;BME280;29213;50.770;7.298;2023-07-28T01:01:25;99933.59;;;15.82;73.94
43621;BME280;29213;50.770;7.298;2023-07-28T01:03:52;99902.94;;;15.64;74.03
43621;BME280;29213;50.770;7.298;2023-07-28T01:06:22;99935.47;;;15.81;74.20
43621;BME280;29213;50.770;7.298;2023-07-28T01:08:55;99871.22;;;15.47;74.22
43621;BME280;29213;50.770;7.298;2023-07-28T01:11:21;99891.81;;;15.60;74.24
43621;BME280;29213;50.770;7.298;2023-07-28T01:13:47;99929.88;;;15.83;73.93
43621;BME280;29213;50.770;7.298;2023-07-28T01:16:12;99871.63;;;15.51;74.09
43621;BME280;29213;50.770;7.298;2023-07-28T01:18:38;99875.34;;;15.50;74.24
43621;BME280;29213;50.770;7.298;2023-07-28T01:21:06;99904.16;;;15.68;74.33
43621;BME280;29213;50.770;7.298;2023-07-28T01:23:55;99921.22;;;15.81;74.21
43621;BME280;29213;50.770;7.298;2023-07-28T01:26:37;99893.66;;;15.60;74.38
43621;BME280;29213;50.770;7.298;2023-07-28T01:29:03;99863.59;;;15.44;74.02
43621;BME280;29213;50.770;7.298;2023-07-28T01:31:29;99895.09;;;15.62;74.27
43621;BME280;29213;50.770;7.298;2023-07-28T01:33:54;99916.66;;;15.81;74.31
43621;BME280;29213;50.770;7.298;2023-07-28T01:36:20;99845.88;;;15.36;74.54
43621;BME280;29213;50.770;7.298;2023-07-28T01:38:45;99887.47;;;15.59;74.16
43621;BME280;29213;50.770;7.298;2023-07-28T01:41:11;99901.31;;;15.63;74.27
43621;BME280;29213;50.770;7.298;2023-07-28T01:43:36;99911.34;;;15.74;74.06
43621;BME280;29213;50.770;7.298;2023-07-28T01:46:02;99892.41;;;15.62;74.11
43621;BME280;29213;50.770;7.298;2023-07-28T01:48:27;99892.19;;;15.64;74.49
43621;BME280;29213;50.770;7.298;2023-07-28T01:50:52;99915.84;;;15.81;74.22
43621;BME280;29213;50.770;7.298;2023-07-28T01:53:18;99915.03;;;15.80;74.66
43621;BME280;29213;50.770;7.298;2023-07-28T01:55:43;99875.28;;;15.57;74.31
43621;BME280;29213;50.770;7.298;2023-07-28T01:58:08;99830.03;;;15.35;74.50
43621;BME280;29213;50.770;7.298;2023-07-28T02:00:35;99913.97;;;15.81;74.30
43621;BME280;29213;50.770;7.298;2023-07-28T02:03:00;99920.19;;;15.82;74.44
43621;BME280;29213;50.770;7.298;2023-07-28T02:05:27;99919.16;;;15.83;74.41
43621;BME280;29213;50.770;7.298;2023-07-28T02:07:53;99906.78;;;15.75;74.23
43621;BME280;29213;50.770;7.298;2023-07-28T02:10:19;99913.81;;;15.76;74.70
43621;BME280;29213;50.770;7.298;2023-07-28T02:12:45;99915.66;;;15.82;74.69
43621;BME280;29213;50.770;7.298;2023-07-28T02:15:11;99872.59;;;15.57;74.45
43621;BME280;29213;50.770;7.298;2023-07-28T02:17:36;99866.66;;;15.55;74.46
43621;BME280;29213;50.770;7.298;2023-07-28T02:20:02;99849.38;;;15.44;74.44
43621;BME280;29213;50.770;7.298;2023-07-28T02:22:29;99883.09;;;15.65;74.58
43621;BME280;29213;50.770;7.298;2023-07-28T02:24:54;99910.88;;;15.84;74.76
43621;BME280;29213;50.770;7.298;2023-07-28T02:27:19;99870.75;;;15.57;74.48
43621;BME280;29213;50.770;7.298;2023-07-28T02:29:45;99859.47;;;15.48;74.46
43621;BME280;29213;50.770;7.298;2023-07-28T02:32:11;99908.22;;;15.77;74.61
43621;BME280;29213;50.770;7.298;2023-07-28T02:34:36;99901.63;;;15.73;74.37
43621;BME280;29213;50.770;7.298;2023-07-28T02:37:02;99876.13;;;15.57;74.63
43621;BME280;29213;50.770;7.298;2023-07-28T02:39:27;99917.06;;;15.85;74.82
43621;BME280;29213;50.770;7.298;2023-07-28T02:41:53;99894.69;;;15.66;74.67
43621;BME280;29213;50.770;7.298;2023-07-28T02:44:18;99873.66;;;15.56;74.80
43621;BME280;29213;50.770;7.298;2023-07-28T02:46:43;99922.22;;;15.86;74.90
43621;BME280;29213;50.770;7.298;2023-07-28T02:49:09;99878.22;;;15.55;74.55
43621;BME280;29213;50.770;7.298;2023-07-28T02:51:34;99894.88;;;15.64;74.92
43621;BME280;29213;50.770;7.298;2023-07-28T02:54:00;99905.19;;;15.67;74.56
43621;BME280;29213;50.770;7.298;2023-07-28T02:56:25;99932.94;;;15.86;75.00
43621;BME280;29213;50.770;7.298;2023-07-28T02:58:51;99941.00;;;15.86;74.82
43621;BME280;29213;50.770;7.298;2023-07-28T03:01:17;99890.16;;;15.59;74.59
43621;BME280;29213;50.770;7.298;2023-07-28T03:03:43;99938.94;;;15.88;74.74
43621;BME280;29213;50.770;7.298;2023-07-28T03:06:08;99910.34;;;15.69;74.71
43621;BME280;29213;50.770;7.298;2023-07-28T03:08:34;99919.00;;;15.71;74.81
43621;BME280;29213;50.770;7.298;2023-07-28T03:10:59;99917.72;;;15.73;74.86
43621;BME280;29213;50.770;7.298;2023-07-28T03:13:28;99925.59;;;15.75;74.92
43621;BME280;29213;50.770;7.298;2023-07-28T03:15:53;99903.75;;;15.65;75.04
43621;BME280;29213;50.770;7.298;2023-07-28T03:18:19;99923.72;;;15.75;75.09
43621;BME280;29213;50.770;7.298;2023-07-28T03:20:46;99906.63;;;15.70;75.13
43621;BME280;29213;50.770;7.298;2023-07-28T03:23:11;99921.84;;;15.76;75.09
43621;BME280;29213;50.770;7.298;2023-07-28T03:25:36;99854.16;;;15.35;75.04
43621;BME280;29213;50.770;7.298;2023-07-28T03:28:02;99922.03;;;15.81;75.08
43621;BME280;29213;50.770;7.298;2023-07-28T03:30:27;99922.88;;;15.82;74.98
43621;BME280;29213;50.770;7.298;2023-07-28T03:32:52;99934.59;;;15.87;75.01
43621;BME280;29213;50.770;7.298;2023-07-28T03:35:18;99935.44;;;15.88;75.47
43621;BME280;29213;50.770;7.298;2023-07-28T03:37:43;99881.50;;;15.57;74.97
43621;BME280;29213;50.770;7.298;2023-07-28T03:40:09;99911.19;;;15.69;74.90
43621;BME280;29213;50.770;7.298;2023-07-28T03:42:34;99856.84;;;15.35;75.01
43621;BME280;29213;50.770;7.298;2023-07-28T03:45:00;99936.88;;;15.90;74.90
43621;BME280;29213;50.770;7.298;2023-07-28T03:47:25;99940.38;;;15.91;75.06
43621;BME280;29213;50.770;7.298;2023-07-28T03:49:51;99919.59;;;15.80;75.10
43621;BME280;29213;50.770;7.298;2023-07-28T03:52:16;99937.47;;;15.93;75.11
43621;BME280;29213;50.770;7.298;2023-07-28T03:54:42;99903.50;;;15.73;75.00
43621;BME280;29213;50.770;7.298;2023-07-28T03:57:08;99904.09;;;15.75;75.12
43621;BME280;29213;50.770;7.298;2023-07-28T03:59:34;99928.38;;;15.94;75.26
43621;BME280;29213;50.770;7.298;2023-07-28T04:01:59;99912.97;;;15.82;75.30
43621;BME280;29213;50.770;7.298;2023-07-28T04:04:25;99934.34;;;15.96;75.28
43621;BME280;29213;50.770;7.298;2023-07-28T04:06:50;99934.34;;;15.96;75.46
43621;BME280;29213;50.770;7.298;2023-07-28T04:09:16;99904.72;;;15.77;75.45
43621;BME280;29213;50.770;7.298;2023-07-28T04:11:42;99933.34;;;15.97;75.18
43621;BME280;29213;50.770;7.298;2023-07-28T04:14:08;99899.13;;;15.79;75.43
43621;BME280;29213;50.770;7.298;2023-07-28T04:16:33;99925.28;;;15.97;75.11
43621;BME280;29213;50.770;7.298;2023-07-28T04:18:59;99915.19;;;15.85;75.41
43621;BME280;29213;50.770;7.298;2023-07-28T04:21:24;99925.91;;;15.92;75.28
43621;BME280;29213;50.770;7.298;2023-07-28T04:23:50;99945.31;;;16.01;75.02
43621;BME280;29213;50.770;7.298;2023-07-28T04:26:16;99918.53;;;15.81;75.45
43621;BME280;29213;50.770;7.298;2023-07-28T04:28:42;99949.84;;;16.00;75.43
43621;BME280;29213;50.770;7.298;2023-07-28T04:31:07;99940.16;;;15.93;75.49
43621;BME280;29213;50.770;7.298;2023-07-28T04:33:33;99909.69;;;15.73;75.57
43621;BME280;29213;50.770;7.298;2023-07-28T04:35:59;99917.72;;;15.73;75.31
43621;BME280;29213;50.770;7.298;2023-07-28T04:38:25;99943.06;;;15.91;75.15
43621;BME280;29213;50.770;7.298;2023-07-28T04:40:50;99926.78;;;15.86;75.26
43621;BME280;29213;50.770;7.298;2023-07-28T04:43:15;99908.88;;;15.73;75.23
43621;BME280;29213;50.770;7.298;2023-07-28T04:45:41;99936.88;;;15.90;75.23
43621;BME280;29213;50.770;7.298;2023-07-28T04:48:06;99909.09;;;15.71;75.56
43621;BME280;29213;50.770;7.298;2023-07-28T04:50:31;99943.28;;;15.89;75.49
43621;BME280;29213;50.770;7.298;2023-07-28T04:52:59;99957.91;;;16.00;75.91
43621;BME280;29213;50.770;7.298;2023-07-28T04:55:25;99935.47;;;15.81;76.07
43621;BME280;29213;50.770;7.298;2023-07-28T04:57:52;99970.06;;;16.03;76.05
43621;BME280;29213;50.770;7.298;2023-07-28T05:00:18;99959.97;;;16.05;75.75
43621;BME280;29213;50.770;7.298;2023-07-28T05:02:44;99958.91;;;16.06;75.98
43621;BME280;29213;50.770;7.298;2023-07-28T05:05:09;99956.66;;;16.03;75.66
43621;BME280;29213;50.770;7.298;2023-07-28T05:07:34;99940.38;;;15.91;75.76
43621;BME280;29213;50.770;7.298;2023-07-28T05:10:00;99936.66;;;15.92;75.96
43621;BME280;29213;50.770;7.298;2023-07-28T05:12:25;99924.72;;;15.81;75.99
43621;BME280;29213;50.770;7.298;2023-07-28T05:14:50;99944.25;;;15.95;76.08
43621;BME280;29213;50.770;7.298;2023-07-28T05:17:16;99936.66;;;15.92;75.84
43621;BME280;29213;50.770;7.298;2023-07-28T05:19:41;99941.19;;;15.98;75.71
43621;BME280;29213;50.770;7.298;2023-07-28T05:22:07;99975.97;;;16.19;75.75
43621;BME280;29213;50.770;7.298;2023-07-28T05:24:33;99977.81;;;16.18;76.03
43621;BME280;29213;50.770;7.298;2023-07-28T05:26:59;99980.94;;;16.22;76.22
43621;BME280;29213;50.770;7.298;2023-07-28T05:29:24;99948.38;;;16.05;76.11
43621;BME280;29213;50.770;7.298;2023-07-28T05:31:50;99986.91;;;16.24;75.92
43621;BME280;29213;50.770;7.298;2023-07-28T05:34:15;99941.41;;;15.97;75.91
43621;BME280;29213;50.770;7.298;2023-07-28T05:36:41;99982.78;;;16.21;76.48
43621;BME280;29213;50.770;7.298;2023-07-28T05:39:06;99941.41;;;15.97;76.31
43621;BME280;29213;50.770;7.298;2023-07-28T05:41:31;99986.06;;;16.23;76.10
43621;BME280;29213;50.770;7.298;2023-07-28T05:43:57;99998.41;;;16.31;76.52
43621;BME280;29213;50.770;7.298;2023-07-28T05:46:23;99974.94;;;16.20;75.61
43621;BME280;29213;50.770;7.298;2023-07-28T05:48:48;99993.66;;;16.33;75.85
43621;BME280;29213;50.770;7.298;2023-07-28T05:51:13;99948.16;;;16.06;74.55
43621;BME280;29213;50.770;7.298;2023-07-28T05:53:39;99932.53;;;15.96;75.22
43621;BME280;29213;50.770;7.298;2023-07-28T05:56:04;99974.50;;;16.23;74.88
43621;BME280;29213;50.770;7.298;2023-07-28T05:58:29;99932.91;;;16.00;74.34
43621;BME280;29213;50.770;7.298;2023-07-28T06:00:55;100000.00;;;16.46;74.58
43621;BME280;29213;50.770;7.298;2023-07-28T06:03:21;99946.84;;;16.15;73.69
43621;BME280;29213;50.770;7.298;2023-07-28T06:05:46;99985.34;;;16.41;73.61
43621;BME280;29213;50.770;7.298;2023-07-28T06:08:12;99957.03;;;16.39;72.36
43621;BME280;29213;50.770;7.298;2023-07-28T06:10:37;99952.41;;;16.46;71.88
43621;BME280;29213;50.770;7.298;2023-07-28T06:13:03;99977.44;;;16.72;72.13
43621;BME280;29213;50.770;7.298;2023-07-28T06:15:29;99969.84;;;16.69;72.13
43621;BME280;29213;50.770;7.298;2023-07-28T06:17:54;99980.25;;;16.84;72.29
43621;BME280;29213;50.770;7.298;2023-07-28T06:20:19;100005.41;;;16.96;73.07
43621;BME280;29213;50.770;7.298;2023-07-28T06:22:45;100010.72;;;17.03;73.49
43621;BME280;29213;50.770;7.298;2023-07-28T06:25:10;99978.56;;;16.90;72.97
43621;BME280;29213;50.770;7.298;2023-07-28T06:27:36;99929.78;;;16.61;72.50
43621;BME280;29213;50.770;7.298;2023-07-28T06:30:02;99974.59;;;16.92;72.40
43621;BME280;29213;50.770;7.298;2023-07-28T06:32:27;100026.06;;;17.21;72.44
43621;BME280;29213;50.770;7.298;2023-07-28T06:34:53;100019.50;;;17.17;72.29
43621;BME280;29213;50.770;7.298;2023-07-28T06:37:19;100008.72;;;17.17;72.21
43621;BME280;29213;50.770;7.298;2023-07-28T06:39:45;100004.63;;;17.15;72.51
43621;BME280;29213;50.770;7.298;2023-07-28T06:42:10;100023.31;;;17.28;72.15
43621;BME280;29213;50.770;7.298;2023-07-28T06:44:37;100025.31;;;17.33;72.21
43621;BME280;29213;50.770;7.298;2023-07-28T06:47:03;100006.03;;;17.17;72.15
43621;BME280;29213;50.770;7.298;2023-07-28T06:49:28;100023.31;;;17.28;72.67
43621;BME280;29213;50.770;7.298;2023-07-28T06:51:54;99961.00;;;16.87;73.07
43621;BME280;29213;50.770;7.298;2023-07-28T06:54:19;100044.41;;;17.31;73.50
43621;BME280;29213;50.770;7.298;2023-07-28T06:56:45;100047.09;;;17.31;73.54
43621;BME280;29213;50.770;7.298;2023-07-28T06:59:10;100039.66;;;17.27;73.78
43621;BME280;29213;50.770;7.298;2023-07-28T07:01:38;99971.56;;;16.82;73.87
43621;BME280;29213;50.770;7.298;2023-07-28T07:04:03;100059.94;;;17.29;74.06
43621;BME280;29213;50.770;7.298;2023-07-28T07:06:30;99989.78;;;16.87;73.72
43621;BME280;29213;50.770;7.298;2023-07-28T07:08:55;99995.53;;;16.90;74.12
43621;BME280;29213;50.770;7.298;2023-07-28T07:11:21;100057.84;;;17.31;74.01
43621;BME280;29213;50.770;7.298;2023-07-28T07:13:46;99993.06;;;16.89;74.10
43621;BME280;29213;50.770;7.298;2023-07-28T07:16:18;99994.06;;;16.94;74.61
43621;BME280;29213;50.770;7.298;2023-07-28T07:18:43;100011.69;;;17.09;74.40
43621;BME280;29213;50.770;7.298;2023-07-28T07:21:09;100065.25;;;17.36;74.58
43621;BME280;29213;50.770;7.298;2023-07-28T07:23:35;100046.31;;;17.24;74.60
43621;BME280;29213;50.770;7.298;2023-07-28T07:26:01;100063.78;;;17.40;74.64
43621;BME280;29213;50.770;7.298;2023-07-28T07:28:27;100041.34;;;17.28;74.77
43621;BME280;29213;50.770;7.298;2023-07-28T07:30:54;100015.59;;;17.13;74.36
43621;BME280;29213;50.770;7.298;2023-07-28T07:33:19;100014.53;;;17.14;74.57
43621;BME280;29213;50.770;7.298;2023-07-28T07:35:45;99969.28;;;16.86;74.22
43621;BME280;29213;50.770;7.298;2023-07-28T07:38:10;99919.06;;;16.54;74.50
43621;BME280;29213;50.770;7.298;2023-07-28T07:40:36;100064.91;;;17.51;74.53
43621;BME280;29213;50.770;7.298;2023-07-28T07:43:01;99980.19;;;16.91;74.63
43621;BME280;29213;50.770;7.298;2023-07-28T07:45:31;99978.34;;;16.91;75.04
43621;BME280;29213;50.770;7.298;2023-07-28T07:47:56;100012.97;;;17.06;75.16
43621;BME280;29213;50.770;7.298;2023-07-28T07:50:22;100081.41;;;17.55;74.96
43621;BME280;29213;50.770;7.298;2023-07-28T07:52:47;100049.78;;;17.31;75.28
43621;BME280;29213;50.770;7.298;2023-07-28T07:55:13;100059.72;;;17.31;75.10
43621;BME280;29213;50.770;7.298;2023-07-28T07:57:39;100086.97;;;17.60;75.10
43621;BME280;29213;50.770;7.298;2023-07-28T08:00:05;100033.47;;;17.26;74.88
43621;BME280;29213;50.770;7.298;2023-07-28T08:02:31;100058.81;;;17.37;74.56
43621;BME280;29213;50.770;7.298;2023-07-28T08:04:56;100094.97;;;17.67;74.81
43621;BME280;29213;50.770;7.298;2023-07-28T08:07:22;100101.59;;;17.71;75.29
43621;BME280;29213;50.770;7.298;2023-07-28T08:09:49;100082.84;;;17.57;75.70
43621;BME280;29213;50.770;7.298;2023-07-28T08:12:14;100028.84;;;17.33;75.29
43621;BME280;29213;50.770;7.298;2023-07-28T08:14:40;100110.56;;;17.83;75.15
43621;BME280;29213;50.770;7.298;2023-07-28T08:17:05;100071.84;;;17.59;75.11
43621;BME280;29213;50.770;7.298;2023-07-28T08:19:31;100111.41;;;17.84;75.26
43621;BME280;29213;50.770;7.298;2023-07-28T08:21:56;100023.78;;;17.25;74.96
43621;BME280;29213;50.770;7.298;2023-07-28T08:24:21;100116.91;;;17.89;74.67
43621;BME280;29213;50.770;7.298;2023-07-28T08:26:47;100073.44;;;17.67;74.88
43621;BME280;29213;50.770;7.298;2023-07-28T08:29:12;100099.22;;;17.81;75.12
43621;BME280;29213;50.770;7.298;2023-07-28T08:31:38;100012.59;;;17.21;74.76
43621;BME280;29213;50.770;7.298;2023-07-28T08:34:03;100047.53;;;17.47;74.77
43621;BME280;29213;50.770;7.298;2023-07-28T08:36:29;100026.31;;;17.39;74.68
43621;BME280;29213;50.770;7.298;2023-07-28T08:38:54;100114.53;;;17.99;74.75
43621;BME280;29213;50.770;7.298;2023-07-28T08:41:20;100037.75;;;17.53;74.95
43621;BME280;29213;50.770;7.298;2023-07-28T08:43:45;100073.16;;;17.75;74.78
43621;BME280;29213;50.770;7.298;2023-07-28T08:46:11;100092.94;;;17.87;74.69
43621;BME280;29213;50.770;7.298;2023-07-28T08:48:37;100054.38;;;17.68;75.15
43621;BME280;29213;50.770;7.298;2023-07-28T08:51:03;100089.91;;;17.96;75.03
43621;BME280;29213;50.770;7.298;2023-07-28T08:53:30;100039.19;;;17.55;74.94
43621;BME280;29213;50.770;7.298;2023-07-28T08:55:56;100112.97;;;18.10;74.66
43621;BME280;29213;50.770;7.298;2023-07-28T08:58:22;100114.38;;;18.13;74.51
43621;BME280;29213;50.770;7.298;2023-07-28T09:00:50;100095.38;;;18.08;74.46
43621;BME280;29213;50.770;7.298;2023-07-28T09:03:17;100024.13;;;17.66;74.30
43621;BME280;29213;50.770;7.298;2023-07-28T09:05:43;100029.41;;;17.80;74.09
43621;BME280;29213;50.770;7.298;2023-07-28T09:08:09;99978.09;;;17.56;74.17
43621;BME280;29213;50.770;7.298;2023-07-28T09:10:46;100114.78;;;18.47;74.11
43621;BME280;29213;50.770;7.298;2023-07-28T09:13:18;100115.31;;;18.56;73.32
43621;BME280;29213;50.770;7.298;2023-07-28T09:15:44;100123.66;;;18.66;73.39
43621;BME280;29213;50.770;7.298;2023-07-28T09:18:16;100045.19;;;18.25;72.78
43621;BME280;29213;50.770;7.298;2023-07-28T09:20:42;100111.38;;;18.82;72.46
43621;BME280;29213;50.770;7.298;2023-07-28T09:23:09;100110.59;;;18.94;72.35
43621;BME280;29213;50.770;7.298;2023-07-28T09:25:36;100112.59;;;19.11;72.39
43621;BME280;29213;50.770;7.298;2023-07-28T09:28:03;99981.97;;;18.40;72.44
43621;BME280;29213;50.770;7.298;2023-07-28T09:30:44;100112.84;;;19.21;71.21
43621;BME280;29213;50.770;7.298;2023-07-28T09:33:09;100048.63;;;18.75;71.77
43621;BME280;29213;50.770;7.298;2023-07-28T09:35:47;100061.66;;;18.78;72.00
43621;BME280;29213;50.770;7.298;2023-07-28T09:38:14;100095.38;;;19.00;71.99
43621;BME280;29213;50.770;7.298;2023-07-28T09:40:40;100064.72;;;18.82;71.82
43621;BME280;29213;50.770;7.298;2023-07-28T09:43:05;99967.47;;;18.22;71.59
43621;BME280;29213;50.770;7.298;2023-07-28T09:45:31;100047.69;;;18.69;71.82
43621;BME280;29213;50.770;7.298;2023-07-28T09:47:58;100066.34;;;18.71;71.68
43621;BME280;29213;50.770;7.298;2023-07-28T09:50:26;100044.72;;;18.59;71.85
43621;BME280;29213;50.770;7.298;2023-07-28T09:52:53;100077.72;;;18.85;71.92
43621;BME280;29213;50.770;7.298;2023-07-28T09:55:20;100099.69;;;19.01;71.88
43621;BME280;29213;50.770;7.298;2023-07-28T09:57:50;100117.78;;;19.12;71.42
43621;BME280;29213;50.770;7.298;2023-07-28T10:00:17;100041.94;;;18.66;71.63
43621;BME280;29213;50.770;7.298;2023-07-28T10:02:44;100064.72;;;18.82;71.73
43621;BME280;29213;50.770;7.298;2023-07-28T10:05:10;100112.03;;;19.20;71.58
43621;BME280;29213;50.770;7.298;2023-07-28T10:07:38;100009.44;;;18.61;71.18
43621;BME280;29213;50.770;7.298;2023-07-28T10:10:09;100034.22;;;18.81;71.01
43621;BME280;29213;50.770;7.298;2023-07-28T10:12:49;100066.59;;;19.05;71.38
43621;BME280;29213;50.770;7.298;2023-07-28T10:15:20;100095.66;;;19.34;71.22
43621;BME280;29213;50.770;7.298;2023-07-28T10:17:49;100112.31;;;19.43;70.82
43621;BME280;29213;50.770;7.298;2023-07-28T10:20:35;100110.06;;;19.40;70.89
43621;BME280;29213;50.770;7.298;2023-07-28T10:23:05;100113.16;;;19.43;70.08
43621;BME280;29213;50.770;7.298;2023-07-28T10:25:35;100097.97;;;19.30;70.28
43621;BME280;29213;50.770;7.298;2023-07-28T10:28:01;100114.44;;;19.41;71.36
43621;BME280;29213;50.770;7.298;2023-07-28T10:30:27;100124.63;;;19.39;71.45
43621;BME280;29213;50.770;7.298;2023-07-28T10:32:54;100121.94;;;19.39;71.61
43621;BME280;29213;50.770;7.298;2023-07-28T10:35:25;100095.38;;;19.23;71.59
43621;BME280;29213;50.770;7.298;2023-07-28T10:37:53;100125.31;;;19.46;72.08
43621;BME280;29213;50.770;7.298;2023-07-28T10:40:31;100140.63;;;19.52;71.99
43621;BME280;29213;50.770;7.298;2023-07-28T10:42:57;100118.41;;;19.62;71.89
43621;BME280;29213;50.770;7.298;2023-07-28T10:45:24;100083.44;;;19.31;71.70
43621;BME280;29213;50.770;7.298;2023-07-28T10:47:51;100104.78;;;19.57;72.17
43621;BME280;29213;50.770;7.298;2023-07-28T10:50:18;100058.09;;;19.32;71.72
43621;BME280;29213;50.770;7.298;2023-07-28T10:52:45;100125.78;;;19.79;71.67
43621;BME280;29213;50.770;7.298;2023-07-28T10:55:21;99983.44;;;18.90;71.41
43621;BME280;29213;50.770;7.298;2023-07-28T10:57:49;100056.91;;;19.40;70.78
43621;BME280;29213;50.770;7.298;2023-07-28T11:00:17;100125.75;;;19.91;70.69
43621;BME280;29213;50.770;7.298;2023-07-28T11:02:44;100115.56;;;19.81;70.68
43621;BME280;29213;50.770;7.298;2023-07-28T11:05:19;100060.19;;;19.42;70.05
43621;BME280;29213;50.770;7.298;2023-07-28T11:07:45;100104.06;;;19.61;70.34
43621;BME280;29213;50.770;7.298;2023-07-28T11:10:12;100118.97;;;19.76;70.25
43621;BME280;29213;50.770;7.298;2023-07-28T11:12:46;100124.38;;;19.76;70.42
43621;BME280;29213;50.770;7.298;2023-07-28T11:15:13;100124.16;;;19.78;70.43
43621;BME280;29213;50.770;7.298;2023-07-28T11:17:46;100066.53;;;19.36;70.48
43621;BME280;29213;50.770;7.298;2023-07-28T11:20:21;100128.63;;;19.72;70.15
43621;BME280;29213;50.770;7.298;2023-07-28T11:22:53;100108.91;;;19.59;70.66
43621;BME280;29213;50.770;7.298;2023-07-28T11:25:19;100132.50;;;19.76;70.42
43621;BME280;29213;50.770;7.298;2023-07-28T11:27:47;100063.03;;;19.35;70.42
43621;BME280;29213;50.770;7.298;2023-07-28T11:30:13;100131.78;;;19.81;70.61
43621;BME280;29213;50.770;7.298;2023-07-28T11:32:39;100050.19;;;19.31;70.17
43621;BME280;29213;50.770;7.298;2023-07-28T11:35:09;100134.47;;;19.81;69.98
43621;BME280;29213;50.770;7.298;2023-07-28T11:37:36;100106.19;;;19.59;70.86
43621;BME280;29213;50.770;7.298;2023-07-28T11:40:03;100130.84;;;19.75;70.67
43621;BME280;29213;50.770;7.298;2023-07-28T11:42:34;100047.97;;;19.28;71.15
43621;BME280;29213;50.770;7.298;2023-07-28T11:45:01;100130.38;;;19.78;70.97
43621;BME280;29213;50.770;7.298;2023-07-28T11:47:27;100133.66;;;19.80;71.19
43621;BME280;29213;50.770;7.298;2023-07-28T11:49:52;100069.34;;;19.41;71.65
43621;BME280;29213;50.770;7.298;2023-07-28T11:52:19;100064.28;;;19.45;71.75
43621;BME280;29213;50.770;7.298;2023-07-28T11:54:44;100052.19;;;19.47;71.71
43621;BME280;29213;50.770;7.298;2023-07-28T11:57:10;100073.91;;;19.65;71.07
43621;BME280;29213;50.770;7.298;2023-07-28T11:59:35;100009.84;;;19.24;71.36
43621;BME280;29213;50.770;7.298;2023-07-28T12:02:03;100124.22;;;19.95;71.68
43621;BME280;29213;50.770;7.298;2023-07-28T12:04:40;100127.53;;;19.97;71.98
43621;BME280;29213;50.770;7.298;2023-07-28T12:07:07;100117.06;;;20.00;71.52
43621;BME280;29213;50.770;7.298;2023-07-28T12:09:54;100108.97;;;19.88;71.62
43621;BME280;29213;50.770;7.298;2023-07-28T12:12:29;100046.56;;;19.61;71.42
43621;BME280;29213;50.770;7.298;2023-07-28T12:14:56;100112.47;;;20.01;71.63
43621;BME280;29213;50.770;7.298;2023-07-28T12:17:23;100108.69;;;20.02;71.40
43621;BME280;29213;50.770;7.298;2023-07-28T12:22:43;100120.00;;;20.11;71.62
43621;BME280;29213;50.770;7.298;2023-07-28T12:25:11;100075.81;;;19.93;71.36
43621;BME280;29213;50.770;7.298;2023-07-28T12:27:37;100075.94;;;19.98;71.32
43621;BME280;29213;50.770;7.298;2023-07-28T12:30:03;100112.19;;;20.26;70.37
43621;BME280;29213;50.770;7.298;2023-07-28T12:32:30;100110.06;;;20.28;69.97
43621;BME280;29213;50.770;7.298;2023-07-28T12:34:55;100111.81;;;20.35;69.57
43621;BME280;29213;50.770;7.298;2023-07-28T12:37:20;100039.75;;;19.99;70.32
43621;BME280;29213;50.770;7.298;2023-07-28T12:39:47;100059.81;;;20.15;69.90
43621;BME280;29213;50.770;7.298;2023-07-28T12:42:13;100075.03;;;20.34;69.36
43621;BME280;29213;50.770;7.298;2023-07-28T12:44:41;100105.31;;;20.65;69.04
43621;BME280;29213;50.770;7.298;2023-07-28T12:47:07;100076.69;;;20.52;67.95
43621;BME280;29213;50.770;7.298;2023-07-28T12:49:32;100056.66;;;20.36;67.68
43621;BME280;29213;50.770;7.298;2023-07-28T12:52:00;100038.47;;;20.31;69.09
43621;BME280;29213;50.770;7.298;2023-07-28T12:54:26;100063.91;;;20.47;67.98